sensor_id;sensor_type;location;lat;lon;timestamp;temperature;humidity
42979;DHT22;28616;44.746;19.678;2023-04-15T00:00:28;7.10;99.90
42979;DHT22;28616;44.746;19.678;2023-04-15T00:02:54;7.00;99.90
42979;DHT22;28616;44.746;19.678;2023-04-15T00:05:20;7.00;99.90
42979;DHT22;28616;44.746;19.678;2023-04-15T00:07:46;6.90;99.90
42979;DHT22;28616;44.746;19.678;2023-04-15T00:10:13;6.90;99.90
42979;DHT22;28616;44.746;19.678;2023-04-15T00:12:41;6.80;99.90
42979;DHT22;28616;44.746;19.678;2023-04-15T00:15:08;6.80;99.90
42979;DHT22;28616;44.746;19.678;2023-04-15T00:17:34;6.90;99.90
42979;DHT22;28616;44.746;19.678;2023-04-15T00:20:03;6.80;99.90
42979;DHT22;28616;44.746;19.678;2023-04-15T00:22:30;6.80;99.90
42979;DHT22;28616;44.746;19.678;2023-04-15T00:24:57;6.80;99.90
42979;DHT22;28616;44.746;19.678;2023-04-15T00:27:22;6.80;99.90
42979;DHT22;28616;44.746;19.678;2023-04-15T00:29:48;6.80;99.90
42979;DHT22;28616;44.746;19.678;2023-04-15T00:32:14;6.70;99.90
42979;DHT22;28616;44.746;19.678;2023-04-15T00:34:40;6.80;99.90
42979;DHT22;28616;44.746;19.678;2023-04-15T00:37:06;6.80;99.90
42979;DHT22;28616;44.746;19.678;2023-04-15T00:39:32;6.90;99.90
42979;DHT22;28616;44.746;19.678;2023-04-15T00:41:58;6.90;99.90
42979;DHT22;28616;44.746;19.678;2023-04-15T00:44:24;6.90;99.90
42979;DHT22;28616;44.746;19.678;2023-04-15T00:46:50;6.90;99.90
42979;DHT22;28616;44.746;19.678;2023-04-15T00:49:16;6.90;99.90
42979;DHT22;28616;44.746;19.678;2023-04-15T00:51:45;6.90;99.90
42979;DHT22;28616;44.746;19.678;2023-04-15T00:54:11;6.90;99.90
42979;DHT22;28616;44.746;19.678;2023-04-15T00:56:37;6.90;99.90
42979;DHT22;28616;44.746;19.678;2023-04-15T00:59:07;6.90;99.90
42979;DHT22;28616;44.746;19.678;2023-04-15T01:01:36;6.90;99.90
42979;DHT22;28616;44.746;19.678;2023-04-15T01:04:03;6.80;99.90
42979;DHT22;28616;44.746;19.678;2023-04-15T01:06:30;6.80;99.90
42979;DHT22;28616;44.746;19.678;2023-04-15T01:08:57;6.70;99.90
42979;DHT22;28616;44.746;19.678;2023-04-15T01:11:23;6.70;99.90
42979;DHT22;28616;44.746;19.678;2023-04-15T01:13:54;6.60;99.90
42979;DHT22;28616;44.746;19.678;2023-04-15T01:16:21;6.60;99.90
42979;DHT22;28616;44.746;19.678;2023-04-15T01:18:47;6.50;99.90
42979;DHT22;28616;44.746;19.678;2023-04-15T01:21:13;6.50;99.90
42979;DHT22;28616;44.746;19.678;2023-04-15T01:23:39;6.50;99.90
42979;DHT22;28616;44.746;19.678;2023-04-15T01:26:06;6.40;99.90
42979;DHT22;28616;44.746;19.678;2023-04-15T01:28:34;6.40;99.90
42979;DHT22;28616;44.746;19.678;2023-04-15T01:31:10;6.50;99.90
42979;DHT22;28616;44.746;19.678;2023-04-15T01:33:38;6.40;99.90
42979;DHT22;28616;44.746;19.678;2023-04-15T01:36:05;6.50;99.90
42979;DHT22;28616;44.746;19.678;2023-04-15T01:38:33;6.40;99.90
42979;DHT22;28616;44.746;19.678;2023-04-15T01:40:59;6.40;99.90
42979;DHT22;28616;44.746;19.678;2023-04-15T01:43:28;6.30;99.90
42979;DHT22;28616;44.746;19.678;2023-04-15T01:45:54;6.40;99.90
42979;DHT22;28616;44.746;19.678;2023-04-15T01:48:21;6.30;99.90
42979;DHT22;28616;44.746;19.678;2023-04-15T01:50:47;6.30;99.90
42979;DHT22;28616;44.746;19.678;2023-04-15T01:53:13;6.30;99.90
42979;DHT22;28616;44.746;19.678;2023-04-15T01:55:40;6.20;99.90
42979;DHT22;28616;44.746;19.678;2023-04-15T01:58:06;6.20;99.90
42979;DHT22;28616;44.746;19.678;2023-04-15T02:00:32;6.20;99.90
42979;DHT22;28616;44.746;19.678;2023-04-15T02:02:58;6.20;99.90
42979;DHT22;28616;44.746;19.678;2023-04-15T02:05:24;6.20;99.90
42979;DHT22;28616;44.746;19.678;2023-04-15T02:07:50;6.20;99.90
42979;DHT22;28616;44.746;19.678;2023-04-15T02:10:16;6.20;99.90
42979;DHT22;28616;44.746;19.678;2023-04-15T02:12:42;6.20;99.90
42979;DHT22;28616;44.746;19.678;2023-04-15T02:15:08;6.10;99.90
42979;DHT22;28616;44.746;19.678;2023-04-15T02:17:35;6.10;99.90
42979;DHT22;28616;44.746;19.678;2023-04-15T02:20:03;6.10;99.90
42979;DHT22;28616;44.746;19.678;2023-04-15T02:22:33;6.10;99.90
42979;DHT22;28616;44.746;19.678;2023-04-15T02:24:59;6.00;99.90
42979;DHT22;28616;44.746;19.678;2023-04-15T02:27:25;5.90;99.90
42979;DHT22;28616;44.746;19.678;2023-04-15T02:29:52;6.00;99.90
42979;DHT22;28616;44.746;19.678;2023-04-15T02:32:18;6.00;99.90
42979;DHT22;28616;44.746;19.678;2023-04-15T02:34:44;6.00;99.90
42979;DHT22;28616;44.746;19.678;2023-04-15T02:37:11;5.90;99.90
42979;DHT22;28616;44.746;19.678;2023-04-15T02:39:37;5.90;99.90
42979;DHT22;28616;44.746;19.678;2023-04-15T02:42:03;5.80;99.90
42979;DHT22;28616;44.746;19.678;2023-04-15T02:44:31;5.80;99.90
42979;DHT22;28616;44.746;19.678;2023-04-15T02:46:57;5.70;99.90
42979;DHT22;28616;44.746;19.678;2023-04-15T02:49:24;5.80;99.90
42979;DHT22;28616;44.746;19.678;2023-04-15T02:51:50;5.80;99.90
42979;DHT22;28616;44.746;19.678;2023-04-15T02:54:20;5.70;99.90
42979;DHT22;28616;44.746;19.678;2023-04-15T02:56:47;5.70;99.90
42979;DHT22;28616;44.746;19.678;2023-04-15T02:59:13;5.80;99.90
42979;DHT22;28616;44.746;19.678;2023-04-15T03:01:39;5.70;99.90
42979;DHT22;28616;44.746;19.678;2023-04-15T03:04:05;5.70;99.90
42979;DHT22;28616;44.746;19.678;2023-04-15T03:06:32;5.70;99.90
42979;DHT22;28616;44.746;19.678;2023-04-15T03:08:58;5.70;99.90
42979;DHT22;28616;44.746;19.678;2023-04-15T03:11:25;5.70;99.90
42979;DHT22;28616;44.746;19.678;2023-04-15T03:13:52;5.70;99.90
42979;DHT22;28616;44.746;19.678;2023-04-15T03:16:17;5.70;99.90
42979;DHT22;28616;44.746;19.678;2023-04-15T03:18:43;5.60;99.90
42979;DHT22;28616;44.746;19.678;2023-04-15T03:21:09;5.60;99.90
42979;DHT22;28616;44.746;19.678;2023-04-15T03:23:35;5.50;99.90
42979;DHT22;28616;44.746;19.678;2023-04-15T03:26:01;5.50;99.90
42979;DHT22;28616;44.746;19.678;2023-04-15T03:28:28;5.50;99.90
42979;DHT22;28616;44.746;19.678;2023-04-15T03:30:54;5.40;99.90
42979;DHT22;28616;44.746;19.678;2023-04-15T03:33:20;5.40;99.90
42979;DHT22;28616;44.746;19.678;2023-04-15T03:35:46;5.40;99.90
42979;DHT22;28616;44.746;19.678;2023-04-15T03:38:12;5.40;99.90
42979;DHT22;28616;44.746;19.678;2023-04-15T03:40:41;5.40;99.90
42979;DHT22;28616;44.746;19.678;2023-04-15T03:43:06;5.40;99.90
42979;DHT22;28616;44.746;19.678;2023-04-15T03:45:32;5.40;99.90
42979;DHT22;28616;44.746;19.678;2023-04-15T03:47:58;5.50;99.90
42979;DHT22;28616;44.746;19.678;2023-04-15T03:50:24;5.50;99.90
42979;DHT22;28616;44.746;19.678;2023-04-15T03:52:50;5.40;99.90
42979;DHT22;28616;44.746;19.678;2023-04-15T03:55:16;5.30;99.90
42979;DHT22;28616;44.746;19.678;2023-04-15T03:57:42;5.30;99.90
42979;DHT22;28616;44.746;19.678;2023-04-15T04:00:08;5.30;99.90
42979;DHT22;28616;44.746;19.678;2023-04-15T04:02:35;5.20;99.90
42979;DHT22;28616;44.746;19.678;2023-04-15T04:05:01;5.20;99.90
42979;DHT22;28616;44.746;19.678;2023-04-15T04:07:26;5.30;99.90
42979;DHT22;28616;44.746;19.678;2023-04-15T04:09:52;5.20;99.90
42979;DHT22;28616;44.746;19.678;2023-04-15T04:12:18;5.20;99.90
42979;DHT22;28616;44.746;19.678;2023-04-15T04:14:44;5.10;99.90
42979;DHT22;28616;44.746;19.678;2023-04-15T04:17:10;5.20;99.90
42979;DHT22;28616;44.746;19.678;2023-04-15T04:19:36;5.20;99.90
42979;DHT22;28616;44.746;19.678;2023-04-15T04:22:01;5.20;99.90
42979;DHT22;28616;44.746;19.678;2023-04-15T04:24:27;5.30;99.90
42979;DHT22;28616;44.746;19.678;2023-04-15T04:26:53;5.30;99.90
42979;DHT22;28616;44.746;19.678;2023-04-15T04:29:19;5.40;99.90
42979;DHT22;28616;44.746;19.678;2023-04-15T04:31:45;5.50;99.90
42979;DHT22;28616;44.746;19.678;2023-04-15T04:34:13;5.50;99.90
42979;DHT22;28616;44.746;19.678;2023-04-15T04:36:39;5.50;99.90
42979;DHT22;28616;44.746;19.678;2023-04-15T04:39:05;5.60;99.90
42979;DHT22;28616;44.746;19.678;2023-04-15T04:41:30;5.60;99.90
42979;DHT22;28616;44.746;19.678;2023-04-15T04:43:56;5.70;99.90
42979;DHT22;28616;44.746;19.678;2023-04-15T04:46:22;5.80;99.90
42979;DHT22;28616;44.746;19.678;2023-04-15T04:48:48;5.90;99.90
42979;DHT22;28616;44.746;19.678;2023-04-15T04:51:14;6.00;99.90
42979;DHT22;28616;44.746;19.678;2023-04-15T04:53:40;6.10;99.90
42979;DHT22;28616;44.746;19.678;2023-04-15T04:56:07;6.20;99.90
42979;DHT22;28616;44.746;19.678;2023-04-15T04:58:33;6.30;99.90
42979;DHT22;28616;44.746;19.678;2023-04-15T05:00:59;6.40;99.90
42979;DHT22;28616;44.746;19.678;2023-04-15T05:03:25;6.60;99.90
42979;DHT22;28616;44.746;19.678;2023-04-15T05:05:51;6.60;99.90
42979;DHT22;28616;44.746;19.678;2023-04-15T05:08:17;6.80;99.90
42979;DHT22;28616;44.746;19.678;2023-04-15T05:10:43;6.90;99.90
42979;DHT22;28616;44.746;19.678;2023-04-15T05:13:09;7.10;99.90
42979;DHT22;28616;44.746;19.678;2023-04-15T05:15:35;7.30;99.90
42979;DHT22;28616;44.746;19.678;2023-04-15T05:18:04;7.40;99.90
42979;DHT22;28616;44.746;19.678;2023-04-15T05:20:30;7.50;99.90
42979;DHT22;28616;44.746;19.678;2023-04-15T05:25:22;7.50;99.90
42979;DHT22;28616;44.746;19.678;2023-04-15T05:30:16;7.60;99.90
42979;DHT22;28616;44.746;19.678;2023-04-15T05:32:42;7.60;99.90
42979;DHT22;28616;44.746;19.678;2023-04-15T05:35:08;7.70;99.90
42979;DHT22;28616;44.746;19.678;2023-04-15T05:37:36;7.90;99.90
42979;DHT22;28616;44.746;19.678;2023-04-15T05:40:02;8.10;99.90
42979;DHT22;28616;44.746;19.678;2023-04-15T05:42:29;8.20;99.90
42979;DHT22;28616;44.746;19.678;2023-04-15T05:44:55;8.50;99.90
42979;DHT22;28616;44.746;19.678;2023-04-15T05:47:20;8.60;99.90
42979;DHT22;28616;44.746;19.678;2023-04-15T05:49:46;8.60;99.90
42979;DHT22;28616;44.746;19.678;2023-04-15T05:52:12;8.80;99.90
42979;DHT22;28616;44.746;19.678;2023-04-15T05:54:38;9.00;99.90
42979;DHT22;28616;44.746;19.678;2023-04-15T05:57:04;9.20;99.90
42979;DHT22;28616;44.746;19.678;2023-04-15T05:59:30;9.40;99.90
42979;DHT22;28616;44.746;19.678;2023-04-15T06:01:56;9.40;99.90
42979;DHT22;28616;44.746;19.678;2023-04-15T06:04:22;9.40;99.90
42979;DHT22;28616;44.746;19.678;2023-04-15T06:06:48;9.50;99.90
42979;DHT22;28616;44.746;19.678;2023-04-15T06:09:17;9.50;99.90
42979;DHT22;28616;44.746;19.678;2023-04-15T06:11:43;9.70;99.90
42979;DHT22;28616;44.746;19.678;2023-04-15T06:14:09;9.90;99.90
42979;DHT22;28616;44.746;19.678;2023-04-15T06:16:35;10.00;99.90
42979;DHT22;28616;44.746;19.678;2023-04-15T06:19:01;10.00;99.90
42979;DHT22;28616;44.746;19.678;2023-04-15T06:21:27;10.10;99.90
42979;DHT22;28616;44.746;19.678;2023-04-15T06:23:54;10.20;99.90
42979;DHT22;28616;44.746;19.678;2023-04-15T06:26:21;10.40;99.90
42979;DHT22;28616;44.746;19.678;2023-04-15T06:28:47;10.50;99.90
42979;DHT22;28616;44.746;19.678;2023-04-15T06:31:13;10.80;99.90
42979;DHT22;28616;44.746;19.678;2023-04-15T06:33:38;11.10;99.90
42979;DHT22;28616;44.746;19.678;2023-04-15T06:36:04;11.30;99.90
42979;DHT22;28616;44.746;19.678;2023-04-15T06:38:30;11.50;99.90
42979;DHT22;28616;44.746;19.678;2023-04-15T06:40:56;11.80;99.90
42979;DHT22;28616;44.746;19.678;2023-04-15T06:43:22;12.00;99.90
42979;DHT22;28616;44.746;19.678;2023-04-15T06:45:48;12.20;99.90
42979;DHT22;28616;44.746;19.678;2023-04-15T06:48:15;12.40;99.90
42979;DHT22;28616;44.746;19.678;2023-04-15T06:50:44;12.40;99.90
42979;DHT22;28616;44.746;19.678;2023-04-15T06:53:10;12.60;99.90
42979;DHT22;28616;44.746;19.678;2023-04-15T06:55:36;12.50;99.50
42979;DHT22;28616;44.746;19.678;2023-04-15T06:58:03;12.60;99.50
42979;DHT22;28616;44.746;19.678;2023-04-15T07:00:40;12.90;99.90
42979;DHT22;28616;44.746;19.678;2023-04-15T07:03:06;13.00;97.80
42979;DHT22;28616;44.746;19.678;2023-04-15T07:05:35;13.20;96.00
42979;DHT22;28616;44.746;19.678;2023-04-15T07:08:01;13.30;94.20
42979;DHT22;28616;44.746;19.678;2023-04-15T07:10:27;13.50;92.90
42979;DHT22;28616;44.746;19.678;2023-04-15T07:12:53;13.60;92.60
42979;DHT22;28616;44.746;19.678;2023-04-15T07:15:22;13.80;92.90
42979;DHT22;28616;44.746;19.678;2023-04-15T07:17:51;13.80;90.50
42979;DHT22;28616;44.746;19.678;2023-04-15T07:20:16;14.00;90.80
42979;DHT22;28616;44.746;19.678;2023-04-15T07:22:46;14.30;88.40
42979;DHT22;28616;44.746;19.678;2023-04-15T07:25:11;14.10;83.50
42979;DHT22;28616;44.746;19.678;2023-04-15T07:27:40;14.20;88.00
42979;DHT22;28616;44.746;19.678;2023-04-15T07:30:09;14.50;85.20
42979;DHT22;28616;44.746;19.678;2023-04-15T07:32:35;14.80;83.90
42979;DHT22;28616;44.746;19.678;2023-04-15T07:35:04;14.80;77.00
42979;DHT22;28616;44.746;19.678;2023-04-15T07:37:37;14.90;78.10
42979;DHT22;28616;44.746;19.678;2023-04-15T07:40:08;15.00;76.30
42979;DHT22;28616;44.746;19.678;2023-04-15T07:42:39;15.00;75.70
42979;DHT22;28616;44.746;19.678;2023-04-15T07:45:06;15.30;76.70
42979;DHT22;28616;44.746;19.678;2023-04-15T07:47:31;15.50;79.10
42979;DHT22;28616;44.746;19.678;2023-04-15T07:49:57;15.90;77.80
42979;DHT22;28616;44.746;19.678;2023-04-15T07:52:26;16.10;68.90
42979;DHT22;28616;44.746;19.678;2023-04-15T07:54:52;16.30;72.20
42979;DHT22;28616;44.746;19.678;2023-04-15T07:57:18;16.60;66.50
42979;DHT22;28616;44.746;19.678;2023-04-15T07:59:46;16.80;66.80
42979;DHT22;28616;44.746;19.678;2023-04-15T08:02:15;17.20;67.40
42979;DHT22;28616;44.746;19.678;2023-04-15T08:04:44;17.10;58.50
42979;DHT22;28616;44.746;19.678;2023-04-15T08:08:11;17.30;59.50
42979;DHT22;28616;44.746;19.678;2023-04-15T08:17:48;17.90;55.90
42979;DHT22;28616;44.746;19.678;2023-04-15T08:20:14;18.00;55.00
42979;DHT22;28616;44.746;19.678;2023-04-15T08:22:40;18.20;58.20
42979;DHT22;28616;44.746;19.678;2023-04-15T08:25:07;18.40;57.70
42979;DHT22;28616;44.746;19.678;2023-04-15T08:27:36;18.50;53.30
42979;DHT22;28616;44.746;19.678;2023-04-15T08:30:02;18.70;54.10
42979;DHT22;28616;44.746;19.678;2023-04-15T08:32:29;18.70;50.70
42979;DHT22;28616;44.746;19.678;2023-04-15T08:34:54;18.80;54.20
42979;DHT22;28616;44.746;19.678;2023-04-15T08:37:20;18.90;54.00
42979;DHT22;28616;44.746;19.678;2023-04-15T08:39:47;19.00;51.10
42979;DHT22;28616;44.746;19.678;2023-04-15T08:42:16;19.20;51.60
42979;DHT22;28616;44.746;19.678;2023-04-15T08:44:48;19.40;51.50
42979;DHT22;28616;44.746;19.678;2023-04-15T08:47:16;19.50;49.70
42979;DHT22;28616;44.746;19.678;2023-04-15T08:49:44;19.60;48.70
42979;DHT22;28616;44.746;19.678;2023-04-15T08:52:13;19.70;49.20
42979;DHT22;28616;44.746;19.678;2023-04-15T08:54:39;19.80;48.10
42979;DHT22;28616;44.746;19.678;2023-04-15T08:57:05;19.80;49.40
42979;DHT22;28616;44.746;19.678;2023-04-15T08:59:31;20.00;48.40
42979;DHT22;28616;44.746;19.678;2023-04-15T09:01:57;19.90;48.60
42979;DHT22;28616;44.746;19.678;2023-04-15T09:04:23;19.80;49.10
42979;DHT22;28616;44.746;19.678;2023-04-15T09:06:49;20.00;47.50
42979;DHT22;28616;44.746;19.678;2023-04-15T09:09:16;20.30;47.50
42979;DHT22;28616;44.746;19.678;2023-04-15T09:11:43;20.60;44.30
42979;DHT22;28616;44.746;19.678;2023-04-15T09:14:09;20.70;43.90
42979;DHT22;28616;44.746;19.678;2023-04-15T09:17:00;21.10;43.80
42979;DHT22;28616;44.746;19.678;2023-04-15T09:19:26;20.60;40.70
42979;DHT22;28616;44.746;19.678;2023-04-15T09:21:57;21.00;41.60
42979;DHT22;28616;44.746;19.678;2023-04-15T09:24:23;20.60;38.50
42979;DHT22;28616;44.746;19.678;2023-04-15T09:26:53;20.40;41.40
42979;DHT22;28616;44.746;19.678;2023-04-15T09:29:24;20.20;42.00
42979;DHT22;28616;44.746;19.678;2023-04-15T09:31:51;19.60;42.50
42979;DHT22;28616;44.746;19.678;2023-04-15T09:34:18;19.70;43.30
42979;DHT22;28616;44.746;19.678;2023-04-15T09:39:12;20.70;41.80
42979;DHT22;28616;44.746;19.678;2023-04-15T09:41:39;20.70;40.40
42979;DHT22;28616;44.746;19.678;2023-04-15T09:44:05;20.90;39.20
42979;DHT22;28616;44.746;19.678;2023-04-15T09:46:42;21.40;42.30
42979;DHT22;28616;44.746;19.678;2023-04-15T09:49:09;20.60;37.60
42979;DHT22;28616;44.746;19.678;2023-04-15T09:51:35;21.00;40.50
42979;DHT22;28616;44.746;19.678;2023-04-15T09:54:02;20.90;39.90
42979;DHT22;28616;44.746;19.678;2023-04-15T09:56:35;21.10;42.50
42979;DHT22;28616;44.746;19.678;2023-04-15T09:59:04;20.90;39.00
42979;DHT22;28616;44.746;19.678;2023-04-15T10:01:30;21.00;40.10
42979;DHT22;28616;44.746;19.678;2023-04-15T10:03:57;20.90;40.80
42979;DHT22;28616;44.746;19.678;2023-04-15T10:06:26;21.10;40.20
42979;DHT22;28616;44.746;19.678;2023-04-15T10:08:53;22.10;40.30
42979;DHT22;28616;44.746;19.678;2023-04-15T10:11:19;22.40;39.50
42979;DHT22;28616;44.746;19.678;2023-04-15T10:13:46;22.30;39.10
42979;DHT22;28616;44.746;19.678;2023-04-15T10:16:15;22.40;37.90
42979;DHT22;28616;44.746;19.678;2023-04-15T10:18:46;22.50;37.70
42979;DHT22;28616;44.746;19.678;2023-04-15T10:21:12;22.60;37.60
42979;DHT22;28616;44.746;19.678;2023-04-15T10:23:45;22.70;37.70
42979;DHT22;28616;44.746;19.678;2023-04-15T10:26:12;22.80;37.10
42979;DHT22;28616;44.746;19.678;2023-04-15T10:31:06;22.90;34.60
42979;DHT22;28616;44.746;19.678;2023-04-15T10:33:33;22.50;34.90
42979;DHT22;28616;44.746;19.678;2023-04-15T10:36:02;21.40;33.80
42979;DHT22;28616;44.746;19.678;2023-04-15T10:38:41;21.90;35.20
42979;DHT22;28616;44.746;19.678;2023-04-15T10:41:17;21.70;33.30
42979;DHT22;28616;44.746;19.678;2023-04-15T10:43:48;22.10;39.50
42979;DHT22;28616;44.746;19.678;2023-04-15T10:46:18;21.80;37.80
42979;DHT22;28616;44.746;19.678;2023-04-15T10:48:52;21.50;37.40
42979;DHT22;28616;44.746;19.678;2023-04-15T10:51:29;20.70;36.70
42979;DHT22;28616;44.746;19.678;2023-04-15T10:53:56;20.10;38.00
42979;DHT22;28616;44.746;19.678;2023-04-15T10:56:23;19.60;38.30
42979;DHT22;28616;44.746;19.678;2023-04-15T10:58:49;19.80;41.00
42979;DHT22;28616;44.746;19.678;2023-04-15T11:01:18;20.30;42.40
42979;DHT22;28616;44.746;19.678;2023-04-15T11:03:44;21.40;40.70
42979;DHT22;28616;44.746;19.678;2023-04-15T11:06:10;22.20;41.20
42979;DHT22;28616;44.746;19.678;2023-04-15T11:08:58;21.40;35.40
42979;DHT22;28616;44.746;19.678;2023-04-15T11:12:04;20.70;37.00
42979;DHT22;28616;44.746;19.678;2023-04-15T11:14:36;20.20;38.50
42979;DHT22;28616;44.746;19.678;2023-04-15T11:17:04;21.30;37.70
42979;DHT22;28616;44.746;19.678;2023-04-15T11:19:37;21.20;36.40
42979;DHT22;28616;44.746;19.678;2023-04-15T11:22:08;21.30;36.30
42979;DHT22;28616;44.746;19.678;2023-04-15T11:24:35;20.40;35.70
42979;DHT22;28616;44.746;19.678;2023-04-15T11:27:01;19.90;36.40
42979;DHT22;28616;44.746;19.678;2023-04-15T11:29:31;20.30;38.30
42979;DHT22;28616;44.746;19.678;2023-04-15T11:32:09;20.00;39.60
42979;DHT22;28616;44.746;19.678;2023-04-15T11:34:36;19.80;37.20
42979;DHT22;28616;44.746;19.678;2023-04-15T11:37:05;21.20;36.70
42979;DHT22;28616;44.746;19.678;2023-04-15T11:39:32;22.00;37.40
42979;DHT22;28616;44.746;19.678;2023-04-15T11:41:58;22.20;35.30
42979;DHT22;28616;44.746;19.678;2023-04-15T11:44:23;22.40;33.50
42979;DHT22;28616;44.746;19.678;2023-04-15T11:54:18;23.10;32.70
42979;DHT22;28616;44.746;19.678;2023-04-15T11:56:49;22.60;30.30
42979;DHT22;28616;44.746;19.678;2023-04-15T11:59:16;21.30;32.90
42979;DHT22;28616;44.746;19.678;2023-04-15T12:01:42;21.60;35.10
42979;DHT22;28616;44.746;19.678;2023-04-15T12:04:12;21.90;37.70
42979;DHT22;28616;44.746;19.678;2023-04-15T12:11:45;23.20;33.20
42979;DHT22;28616;44.746;19.678;2023-04-15T12:14:19;22.10;33.10
42979;DHT22;28616;44.746;19.678;2023-04-15T12:16:49;22.70;34.60
42979;DHT22;28616;44.746;19.678;2023-04-15T12:19:23;22.10;34.50
42979;DHT22;28616;44.746;19.678;2023-04-15T12:21:50;21.30;36.50
42979;DHT22;28616;44.746;19.678;2023-04-15T12:24:19;20.60;36.60
42979;DHT22;28616;44.746;19.678;2023-04-15T12:26:51;20.30;36.30
42979;DHT22;28616;44.746;19.678;2023-04-15T12:29:18;20.30;39.50
42979;DHT22;28616;44.746;19.678;2023-04-15T12:31:53;20.30;39.60
42979;DHT22;28616;44.746;19.678;2023-04-15T12:34:31;20.90;37.90
42979;DHT22;28616;44.746;19.678;2023-04-15T12:36:59;20.50;35.50
42979;DHT22;28616;44.746;19.678;2023-04-15T12:39:28;20.30;38.30
42979;DHT22;28616;44.746;19.678;2023-04-15T12:41:55;20.20;37.30
42979;DHT22;28616;44.746;19.678;2023-04-15T12:44:24;19.90;36.60
42979;DHT22;28616;44.746;19.678;2023-04-15T12:46:51;19.90;37.70
42979;DHT22;28616;44.746;19.678;2023-04-15T12:49:18;19.80;36.60
42979;DHT22;28616;44.746;19.678;2023-04-15T12:51:47;19.80;38.40
42979;DHT22;28616;44.746;19.678;2023-04-15T12:54:14;19.70;38.60
42979;DHT22;28616;44.746;19.678;2023-04-15T12:56:41;19.60;39.50
42979;DHT22;28616;44.746;19.678;2023-04-15T12:59:07;19.40;38.20
42979;DHT22;28616;44.746;19.678;2023-04-15T13:01:32;19.30;37.70
42979;DHT22;28616;44.746;19.678;2023-04-15T13:03:58;19.20;39.90
42979;DHT22;28616;44.746;19.678;2023-04-15T13:06:24;19.00;39.70
42979;DHT22;28616;44.746;19.678;2023-04-15T13:08:50;19.10;40.10
42979;DHT22;28616;44.746;19.678;2023-04-15T13:11:16;19.10;40.50
42979;DHT22;28616;44.746;19.678;2023-04-15T13:13:42;19.20;39.80
42979;DHT22;28616;44.746;19.678;2023-04-15T13:16:07;19.20;40.60
42979;DHT22;28616;44.746;19.678;2023-04-15T13:18:34;18.90;39.40
42979;DHT22;28616;44.746;19.678;2023-04-15T13:21:00;18.30;38.40
42979;DHT22;28616;44.746;19.678;2023-04-15T13:23:26;18.20;40.20
42979;DHT22;28616;44.746;19.678;2023-04-15T13:25:52;18.00;40.70
42979;DHT22;28616;44.746;19.678;2023-04-15T13:28:19;17.90;42.40
42979;DHT22;28616;44.746;19.678;2023-04-15T13:30:45;17.80;42.30
42979;DHT22;28616;44.746;19.678;2023-04-15T13:33:11;17.80;43.40
42979;DHT22;28616;44.746;19.678;2023-04-15T13:35:37;17.60;43.10
42979;DHT22;28616;44.746;19.678;2023-04-15T13:38:04;17.60;42.70
42979;DHT22;28616;44.746;19.678;2023-04-15T13:40:29;17.60;44.20
42979;DHT22;28616;44.746;19.678;2023-04-15T13:42:55;17.70;41.70
42979;DHT22;28616;44.746;19.678;2023-04-15T13:45:23;17.80;41.00
42979;DHT22;28616;44.746;19.678;2023-04-15T13:47:49;17.70;45.10
42979;DHT22;28616;44.746;19.678;2023-04-15T13:50:15;17.40;46.80
42979;DHT22;28616;44.746;19.678;2023-04-15T13:52:41;16.80;47.10
42979;DHT22;28616;44.746;19.678;2023-04-15T13:55:07;17.30;48.40
42979;DHT22;28616;44.746;19.678;2023-04-15T13:57:33;17.80;48.60
42979;DHT22;28616;44.746;19.678;2023-04-15T13:59:58;18.00;48.30
42979;DHT22;28616;44.746;19.678;2023-04-15T14:02:24;18.90;48.80
42979;DHT22;28616;44.746;19.678;2023-04-15T14:04:50;19.10;48.70
42979;DHT22;28616;44.746;19.678;2023-04-15T14:07:16;19.10;48.10
42979;DHT22;28616;44.746;19.678;2023-04-15T14:09:44;19.10;47.40
42979;DHT22;28616;44.746;19.678;2023-04-15T14:12:09;18.50;49.10
42979;DHT22;28616;44.746;19.678;2023-04-15T14:14:35;17.80;50.70
42979;DHT22;28616;44.746;19.678;2023-04-15T14:17:02;17.20;52.10
42979;DHT22;28616;44.746;19.678;2023-04-15T14:19:30;16.60;53.20
42979;DHT22;28616;44.746;19.678;2023-04-15T14:21:56;17.30;54.90
42979;DHT22;28616;44.746;19.678;2023-04-15T14:24:22;17.80;53.20
42979;DHT22;28616;44.746;19.678;2023-04-15T14:26:48;18.10;53.80
42979;DHT22;28616;44.746;19.678;2023-04-15T14:29:13;17.70;52.90
42979;DHT22;28616;44.746;19.678;2023-04-15T14:31:39;17.60;54.80
42979;DHT22;28616;44.746;19.678;2023-04-15T14:34:05;17.70;54.80
42979;DHT22;28616;44.746;19.678;2023-04-15T14:36:31;18.00;54.00
42979;DHT22;28616;44.746;19.678;2023-04-15T14:38:58;18.10;53.20
42979;DHT22;28616;44.746;19.678;2023-04-15T14:41:23;18.50;52.80
42979;DHT22;28616;44.746;19.678;2023-04-15T14:43:49;18.60;54.20
42979;DHT22;28616;44.746;19.678;2023-04-15T14:46:15;18.20;52.80
42979;DHT22;28616;44.746;19.678;2023-04-15T14:48:41;18.20;53.80
42979;DHT22;28616;44.746;19.678;2023-04-15T14:51:07;18.30;53.90
42979;DHT22;28616;44.746;19.678;2023-04-15T14:53:33;17.60;54.70
42979;DHT22;28616;44.746;19.678;2023-04-15T14:55:58;17.60;55.70
42979;DHT22;28616;44.746;19.678;2023-04-15T14:58:24;17.70;55.70
42979;DHT22;28616;44.746;19.678;2023-04-15T15:00:50;17.60;55.30
42979;DHT22;28616;44.746;19.678;2023-04-15T15:03:16;17.70;53.40
42979;DHT22;28616;44.746;19.678;2023-04-15T15:05:44;17.80;53.60
42979;DHT22;28616;44.746;19.678;2023-04-15T15:08:11;17.60;51.60
42979;DHT22;28616;44.746;19.678;2023-04-15T15:10:37;17.20;52.60
42979;DHT22;28616;44.746;19.678;2023-04-15T15:13:06;17.40;52.30
42979;DHT22;28616;44.746;19.678;2023-04-15T15:15:33;17.40;52.00
42979;DHT22;28616;44.746;19.678;2023-04-15T15:17:59;17.40;52.30
42979;DHT22;28616;44.746;19.678;2023-04-15T15:20:25;17.30;52.40
42979;DHT22;28616;44.746;19.678;2023-04-15T15:22:51;17.00;51.70
42979;DHT22;28616;44.746;19.678;2023-04-15T15:25:17;17.20;52.60
42979;DHT22;28616;44.746;19.678;2023-04-15T15:27:43;16.90;52.20
42979;DHT22;28616;44.746;19.678;2023-04-15T15:30:10;17.10;51.10
42979;DHT22;28616;44.746;19.678;2023-04-15T15:32:40;17.20;52.40
42979;DHT22;28616;44.746;19.678;2023-04-15T15:35:07;17.00;51.80
42979;DHT22;28616;44.746;19.678;2023-04-15T15:37:35;17.00;52.20
42979;DHT22;28616;44.746;19.678;2023-04-15T15:40:05;16.90;52.10
42979;DHT22;28616;44.746;19.678;2023-04-15T15:42:31;16.70;52.50
42979;DHT22;28616;44.746;19.678;2023-04-15T15:44:58;16.60;52.40
42979;DHT22;28616;44.746;19.678;2023-04-15T15:47:24;16.60;52.30
42979;DHT22;28616;44.746;19.678;2023-04-15T15:49:53;16.70;53.30
42979;DHT22;28616;44.746;19.678;2023-04-15T15:52:20;16.60;52.30